Patricia Ann — WDE2845 — position and weather

sailwx.info

Track history (hours):
 
Tides and Currents Weather Stations Pressure Air Temp Water Temp Dewpoint Dewpoint Depression Visibility Wind Speed Wind Dir Waves Ship Positions

Patricia Ann

Owner: AmNav Maritime Services, Oakland, CA. More information available from US FCC via Universal Licensing System and Coast Guard Vessel Documentation Center.

Last reported at 2016-Jul-01 15:11 UTC. Time now 2016-Jul-01 17:17 UTC.
Position N 38°02' W 122°08'.

Length 24 m; draft 4.9 m.

Type: Tug. MMSI: 367330510.

Date/timePositionNaut miles runAvg speedWind from/ knotsBaromVisibWave heightAir tempDewpointWater temp
2016-Jul-01 15:11N 38°02' W 122°08'0 0.0
2016-Jul-01 02:07N 38°02' W 122°08'5 9.2
2016-Jul-01 01:33N 38°04' W 122°15'16 7.5
2016-Jun-30 23:27N 37°49' W 122°21'1 1.4
2016-Jun-30 22:30N 37°49' W 122°20'0 0.3
2016-Jun-30 21:33N 37°49' W 122°19'1 0.1
2016-Jun-30 17:20N 37°49' W 122°19'0 0.0
2016-Jun-30 16:31N 37°49' W 122°19'0 0.0
2016-Jun-30 15:33N 37°49' W 122°19'0 0.0
2016-Jun-30 14:34N 37°49' W 122°19'4 4.2
2016-Jun-30 13:33N 37°48' W 122°24'1 1.1
2016-Jun-30 12:33N 37°48' W 122°23'3 2.6
2016-Jun-30 11:21N 37°49' W 122°19'0 0.0
2016-Jun-30 10:30N 37°49' W 122°19'0 0.0
2016-Jun-30 09:18N 37°49' W 122°19'0 0.0
2016-Jun-30 07:20N 37°49' W 122°19'15 0.5
2016-Jun-29 03:19N 38°04' W 122°13'2 2.8
2016-Jun-29 02:32N 38°03' W 122°16'0 0.1
2016-Jun-29 01:33N 38°03' W 122°16'6 5.4
2016-Jun-29 00:28N 38°02' W 122°08'1 0.1
2016-Jun-28 17:28N 38°02' W 122°07'1 1.0
2016-Jun-28 16:22N 38°03' W 122°06'1 0.8
2016-Jun-28 15:21N 38°02' W 122°07'3 3.3
2016-Jun-28 14:21N 38°03' W 122°11'5 6.3
2016-Jun-28 13:33N 38°03' W 122°17'12 9.3
2016-Jun-28 12:16N 37°53' W 122°25'6 1.6
2016-Jun-28 08:31N 37°49' W 122°19'0 0.0
2016-Jun-28 07:32N 37°49' W 122°19'0 0.0
2016-Jun-28 06:31N 37°49' W 122°19'0 0.0
2016-Jun-28 02:29N 37°49' W 122°19'0 0.0
2016-Jun-28 01:26N 37°49' W 122°19'0 0.0
2016-Jun-28 00:17N 37°49' W 122°19'0 0.0
2016-Jun-27 22:33N 37°49' W 122°19'0 0.0
2016-Jun-27 21:33N 37°49' W 122°19'0 0.0
2016-Jun-27 20:29N 37°49' W 122°19'0 0.0
2016-Jun-27 19:33N 37°49' W 122°19'0 0.0
2016-Jun-27 18:13N 37°49' W 122°19'0 0.0
2016-Jun-27 17:25N 37°49' W 122°19'0 0.0
2016-Jun-27 16:32N 37°49' W 122°19'0 0.0
2016-Jun-27 15:25N 37°49' W 122°19'2 2.4
2016-Jun-27 14:33N 37°48' W 122°17'4 3.5
2016-Jun-27 13:34N 37°48' W 122°22'2 2.2
2016-Jun-27 12:33N 37°48' W 122°19'0 0.3
2016-Jun-27 11:34N 37°48' W 122°19'2 1.6
2016-Jun-27 10:32N 37°48' W 122°21'1 0.8
2016-Jun-27 09:31N 37°49' W 122°20'1 0.9
2016-Jun-27 08:33N 37°49' W 122°19'0 0.0
2016-Jun-27 07:33N 37°49' W 122°19'2 0.4
2016-Jun-27 02:28N 37°48' W 122°20'2 2.4
2016-Jun-27 01:34N 37°48' W 122°18'0 0.5
2016-Jun-27 00:33N 37°48' W 122°18'2 0.8
2016-Jun-26 22:28N 37°49' W 122°19'0 0.0
2016-Jun-26 20:33N 37°49' W 122°19'0 0.0
2016-Jun-26 19:33N 37°49' W 122°19'0 0.0
2016-Jun-26 15:12N 37°49' W 122°19'0 0.0
2016-Jun-26 14:31N 37°49' W 122°19'1 0.9
2016-Jun-26 13:33N 37°49' W 122°20'0 0.4
2016-Jun-26 12:29N 37°49' W 122°20'0 0.4
2016-Jun-26 11:33N 37°48' W 122°20'0 0.1
2016-Jun-26 10:33N 37°48' W 122°21'0 0.0
2016-Jun-26 08:03N 37°48' W 122°21'0 0.0
2016-Jun-26 03:31N 37°48' W 122°21'1 1.5
2016-Jun-26 02:33N 37°48' W 122°19'1 0.6
2016-Jun-26 01:34N 37°48' W 122°20'1 1.4
2016-Jun-26 00:33N 37°48' W 122°18'1 0.7
2016-Jun-25 23:33N 37°48' W 122°19'2 0.8
2016-Jun-25 21:33N 37°49' W 122°19'0 0.0
2016-Jun-25 20:32N 37°49' W 122°19'0 0.0
2016-Jun-25 15:32N 37°49' W 122°19'0 0.0
2016-Jun-25 14:33N 37°49' W 122°19'0 0.0
2016-Jun-25 13:28N 37°49' W 122°19'0 0.0
2016-Jun-25 12:28N 37°49' W 122°19'0 0.0
2016-Jun-25 11:30N 37°49' W 122°19'0 0.0
2016-Jun-25 10:30N 37°49' W 122°19'2 0.8
2016-Jun-25 08:34N 37°48' W 122°20'1 1.1
2016-Jun-25 07:33N 37°48' W 122°22'3 2.7
2016-Jun-25 06:33N 37°49' W 122°19'0 0.0
2016-Jun-25 05:33N 37°49' W 122°19'2 0.7
2016-Jun-25 03:17N 37°48' W 122°20'1 1.1
2016-Jun-25 02:34N 37°48' W 122°19'2 1.6
2016-Jun-25 01:32N 37°49' W 122°19'0 0.0
2016-Jun-25 00:33N 37°49' W 122°19'0 0.0
2016-Jun-24 23:33N 37°49' W 122°19'0 0.0
2016-Jun-24 22:33N 37°49' W 122°19'0 0.0
2016-Jun-24 21:33N 37°49' W 122°19'0 0.0
2016-Jun-24 20:18N 37°49' W 122°19'1 1.1
2016-Jun-24 19:07N 37°49' W 122°20'13 3.3
2016-Jun-24 15:10N 38°02' W 122°22'7 0.5
2016-Jun-24 01:05N 38°04' W 122°13'4 0.9
2016-Jun-23 20:29N 38°03' W 122°19'2 0.1
2016-Jun-23 02:26N 38°03' W 122°16'2 2.8
2016-Jun-23 01:33N 38°04' W 122°13'4 0.5
2016-Jun-22 18:04N 38°02' W 122°09'4 7.3
2016-Jun-22 17:33N 38°04' W 122°13'7 7.3
2016-Jun-22 16:33N 38°02' W 122°22'11 7.3
2016-Jun-22 15:03N 37°51' W 122°22'3 6.3
2016-Jun-22 14:33N 37°49' W 122°19'0 0.0
2016-Jun-22 12:33N 37°49' W 122°19'0 0.0
2016-Jun-22 11:30N 37°49' W 122°19'0 0.0
2016-Jun-22 10:33N 37°49' W 122°19'0 0.0
2016-Jun-22 09:32N 37°49' W 122°19'0 0.0
2016-Jun-22 08:33N 37°49' W 122°19'0 0.0
2016-Jun-22 07:33N 37°49' W 122°19'0 0.0
2016-Jun-22 06:34N 37°49' W 122°19'0 0.0
2016-Jun-22 04:18N 37°49' W 122°19'0 0.0
2016-Jun-22 03:33N 37°49' W 122°19'2 1.7
2016-Jun-22 02:33N 37°48' W 122°19'0 0.0
2016-Jun-22 01:33N 37°48' W 122°19'1 0.4
2016-Jun-21 23:10N 37°48' W 122°20'0 0.7
2016-Jun-21 22:33N 37°48' W 122°19'  
Track history (hours):
 
Tides and Currents Weather Stations Pressure Air Temp Water Temp Dewpoint Dewpoint Depression Visibility Wind Speed Wind Dir Waves Ship Positions

Patricia Ann

Owner: AmNav Maritime Services, Oakland, CA. More information available from US FCC via Universal Licensing System and Coast Guard Vessel Documentation Center.

Last reported at 2016-Jul-01 15:11 UTC. Time now 2016-Jul-01 17:17 UTC.
Position N 38°02' W 122°08'.

Length 24 m; draft 4.9 m.

Type: Tug. MMSI: 367330510.

Date/timePositionNaut miles runAvg speedWind from/ knotsBaromVisibWave heightAir tempDewpointWater temp
2016-Jul-01 15:11N 38°02' W 122°08'0 0.0
2016-Jul-01 02:07N 38°02' W 122°08'5 9.2
2016-Jul-01 01:33N 38°04' W 122°15'16 7.5
2016-Jun-30 23:27N 37°49' W 122°21'1 1.4
2016-Jun-30 22:30N 37°49' W 122°20'0 0.3
2016-Jun-30 21:33N 37°49' W 122°19'1 0.1
2016-Jun-30 17:20N 37°49' W 122°19'0 0.0
2016-Jun-30 16:31N 37°49' W 122°19'0 0.0
2016-Jun-30 15:33N 37°49' W 122°19'0 0.0
2016-Jun-30 14:34N 37°49' W 122°19'4 4.2
2016-Jun-30 13:33N 37°48' W 122°24'1 1.1
2016-Jun-30 12:33N 37°48' W 122°23'3 2.6
2016-Jun-30 11:21N 37°49' W 122°19'0 0.0
2016-Jun-30 10:30N 37°49' W 122°19'0 0.0
2016-Jun-30 09:18N 37°49' W 122°19'0 0.0
2016-Jun-30 07:20N 37°49' W 122°19'15 0.5
2016-Jun-29 03:19N 38°04' W 122°13'2 2.8
2016-Jun-29 02:32N 38°03' W 122°16'0 0.1
2016-Jun-29 01:33N 38°03' W 122°16'6 5.4
2016-Jun-29 00:28N 38°02' W 122°08'1 0.1
2016-Jun-28 17:28N 38°02' W 122°07'1 1.0
2016-Jun-28 16:22N 38°03' W 122°06'1 0.8
2016-Jun-28 15:21N 38°02' W 122°07'3 3.3
2016-Jun-28 14:21N 38°03' W 122°11'5 6.3
2016-Jun-28 13:33N 38°03' W 122°17'12 9.3
2016-Jun-28 12:16N 37°53' W 122°25'6 1.6
2016-Jun-28 08:31N 37°49' W 122°19'0 0.0
2016-Jun-28 07:32N 37°49' W 122°19'0 0.0
2016-Jun-28 06:31N 37°49' W 122°19'0 0.0
2016-Jun-28 02:29N 37°49' W 122°19'0 0.0
2016-Jun-28 01:26N 37°49' W 122°19'0 0.0
2016-Jun-28 00:17N 37°49' W 122°19'0 0.0
2016-Jun-27 22:33N 37°49' W 122°19'0 0.0
2016-Jun-27 21:33N 37°49' W 122°19'0 0.0
2016-Jun-27 20:29N 37°49' W 122°19'0 0.0
2016-Jun-27 19:33N 37°49' W 122°19'0 0.0
2016-Jun-27 18:13N 37°49' W 122°19'0 0.0
2016-Jun-27 17:25N 37°49' W 122°19'0 0.0
2016-Jun-27 16:32N 37°49' W 122°19'0 0.0
2016-Jun-27 15:25N 37°49' W 122°19'2 2.4
2016-Jun-27 14:33N 37°48' W 122°17'4 3.5
2016-Jun-27 13:34N 37°48' W 122°22'2 2.2
2016-Jun-27 12:33N 37°48' W 122°19'0 0.3
2016-Jun-27 11:34N 37°48' W 122°19'2 1.6
2016-Jun-27 10:32N 37°48' W 122°21'1 0.8
2016-Jun-27 09:31N 37°49' W 122°20'1 0.9
2016-Jun-27 08:33N 37°49' W 122°19'0 0.0
2016-Jun-27 07:33N 37°49' W 122°19'2 0.4
2016-Jun-27 02:28N 37°48' W 122°20'2 2.4
2016-Jun-27 01:34N 37°48' W 122°18'0 0.5
2016-Jun-27 00:33N 37°48' W 122°18'2 0.8
2016-Jun-26 22:28N 37°49' W 122°19'0 0.0
2016-Jun-26 20:33N 37°49' W 122°19'0 0.0
2016-Jun-26 19:33N 37°49' W 122°19'0 0.0
2016-Jun-26 15:12N 37°49' W 122°19'0 0.0
2016-Jun-26 14:31N 37°49' W 122°19'1 0.9
2016-Jun-26 13:33N 37°49' W 122°20'0 0.4
2016-Jun-26 12:29N 37°49' W 122°20'0 0.4
2016-Jun-26 11:33N 37°48' W 122°20'0 0.1
2016-Jun-26 10:33N 37°48' W 122°21'0 0.0
2016-Jun-26 08:03N 37°48' W 122°21'0 0.0
2016-Jun-26 03:31N 37°48' W 122°21'1 1.5
2016-Jun-26 02:33N 37°48' W 122°19'1 0.6
2016-Jun-26 01:34N 37°48' W 122°20'1 1.4
2016-Jun-26 00:33N 37°48' W 122°18'1 0.7
2016-Jun-25 23:33N 37°48' W 122°19'2 0.8
2016-Jun-25 21:33N 37°49' W 122°19'0 0.0
2016-Jun-25 20:32N 37°49' W 122°19'0 0.0
2016-Jun-25 15:32N 37°49' W 122°19'0 0.0
2016-Jun-25 14:33N 37°49' W 122°19'0 0.0
2016-Jun-25 13:28N 37°49' W 122°19'0 0.0
2016-Jun-25 12:28N 37°49' W 122°19'0 0.0
2016-Jun-25 11:30N 37°49' W 122°19'0 0.0
2016-Jun-25 10:30N 37°49' W 122°19'2 0.8
2016-Jun-25 08:34N 37°48' W 122°20'1 1.1
2016-Jun-25 07:33N 37°48' W 122°22'3 2.7
2016-Jun-25 06:33N 37°49' W 122°19'0 0.0
2016-Jun-25 05:33N 37°49' W 122°19'2 0.7
2016-Jun-25 03:17N 37°48' W 122°20'1 1.1
2016-Jun-25 02:34N 37°48' W 122°19'2 1.6
2016-Jun-25 01:32N 37°49' W 122°19'0 0.0
2016-Jun-25 00:33N 37°49' W 122°19'0 0.0
2016-Jun-24 23:33N 37°49' W 122°19'0 0.0
2016-Jun-24 22:33N 37°49' W 122°19'0 0.0
2016-Jun-24 21:33N 37°49' W 122°19'0 0.0
2016-Jun-24 20:18N 37°49' W 122°19'1 1.1
2016-Jun-24 19:07N 37°49' W 122°20'13 3.3
2016-Jun-24 15:10N 38°02' W 122°22'7 0.5
2016-Jun-24 01:05N 38°04' W 122°13'4 0.9
2016-Jun-23 20:29N 38°03' W 122°19'2 0.1
2016-Jun-23 02:26N 38°03' W 122°16'2 2.8
2016-Jun-23 01:33N 38°04' W 122°13'4 0.5
2016-Jun-22 18:04N 38°02' W 122°09'4 7.3
2016-Jun-22 17:33N 38°04' W 122°13'7 7.3
2016-Jun-22 16:33N 38°02' W 122°22'11 7.3
2016-Jun-22 15:03N 37°51' W 122°22'3 6.3
2016-Jun-22 14:33N 37°49' W 122°19'0 0.0
2016-Jun-22 12:33N 37°49' W 122°19'0 0.0
2016-Jun-22 11:30N 37°49' W 122°19'0 0.0
2016-Jun-22 10:33N 37°49' W 122°19'0 0.0
2016-Jun-22 09:32N 37°49' W 122°19'0 0.0
2016-Jun-22 08:33N 37°49' W 122°19'0 0.0
2016-Jun-22 07:33N 37°49' W 122°19'0 0.0
2016-Jun-22 06:34N 37°49' W 122°19'0 0.0
2016-Jun-22 04:18N 37°49' W 122°19'0 0.0
2016-Jun-22 03:33N 37°49' W 122°19'2 1.7
2016-Jun-22 02:33N 37°48' W 122°19'0 0.0
2016-Jun-22 01:33N 37°48' W 122°19'1 0.4
2016-Jun-21 23:10N 37°48' W 122°20'0 0.7
2016-Jun-21 22:33N 37°48' W 122°19'  

Dump ship's entire track history